Time;durP1;ratioP1;P1;durP2;ratioP2;P2;SDS_P1;SDS_P2;PMS_P1;PMS_P2;Temp;Humidity;BMP_temperature;BMP_pressure;BME280_temperature;BME280_humidity;BME280_pressure;Samples;Min_cycle;Max_cycle;Signal;HPM_P1;HPM_P2
2023/10/22 00:00:13;;;;;;;32.00;17.00;;;;;;;;;;104470;1281;61800;-31
2023/10/22 00:02:39;;;;;;;25.80;14.60;;;;;;;;;;104475;1276;61695;-32
2023/10/22 00:05:04;;;;;;;;;;;;;;;;;;104489;1280;61669;-32
2023/10/22 00:07:29;;;;;;;30.50;14.90;;;;;;;;;;104410;1277;61692;-30
2023/10/22 00:09:55;;;;;;;31.80;17.10;;;;;;;;;;104370;1279;61690;-32
2023/10/22 00:12:20;;;;;;;33.10;15.20;;;;;;;;;;104386;1281;61697;-28
2023/10/22 00:14:45;;;;;;;34.40;17.80;;;;;;;;;;104597;1278;61720;-31
2023/10/22 00:17:10;;;;;;;30.10;16.80;;;;;;;;;;104538;1277;61646;-31
2023/10/22 00:19:36;;;;;;;38.10;18.10;;;;;;;;;;104375;1278;61807;-29
2023/10/22 00:22:01;;;;;;;37.80;16.20;;;;;;;;;;104438;1276;62248;-29
2023/10/22 00:24:27;;;;;;;27.70;14.00;;;;;;;;;;104368;1281;61718;-29
2023/10/22 00:26:52;;;;;;;25.40;13.20;;;;;;;;;;104425;1278;61692;-32
2023/10/22 00:29:18;;;;;;;29.60;13.60;;;;;;;;;;104493;1281;61714;-32
2023/10/22 00:31:43;;;;;;;28.60;14.60;;;;;;;;;;104466;1281;61700;-27
2023/10/22 00:34:08;;;;;;;28.00;14.00;;;;;;;;;;104400;1281;61811;-28
2023/10/22 00:36:34;;;;;;;27.70;15.00;;;;;;;;;;104334;1277;62054;-27
2023/10/22 00:38:59;;;;;;;30.80;14.80;;;;;;;;;;104345;1276;61704;-30
2023/10/22 00:41:24;;;;;;;28.90;14.80;;;;;;;;;;104488;1276;61682;-29
2023/10/22 00:43:49;;;;;;;33.00;14.40;;;;;;;;;;104438;1277;61697;-32
2023/10/22 00:46:16;;;;;;;28.60;14.10;;;;;;;;;;104424;1280;62201;-33
2023/10/22 00:48:41;;;;;;;25.20;12.90;;;;;;;;;;104421;1281;61686;-31
2023/10/22 00:51:06;;;;;;;27.80;12.50;;;;;;;;;;104380;1276;61724;-31
2023/10/22 00:53:32;;;;;;;30.20;13.30;;;;;;;;;;104450;1277;61707;-32
2023/10/22 00:55:57;;;;;;;20.40;11.00;;;;;;;;;;104453;1281;62084;-29
2023/10/22 00:58:22;;;;;;;28.00;12.70;;;;;;;;;;104454;1277;61644;-33
2023/10/22 01:00:47;;;;;;;20.80;10.50;;;;;;;;;;104369;1278;62146;-34
2023/10/22 01:03:13;;;;;;;20.60;10.80;;;;;;;;;;104351;1276;61749;-31
2023/10/22 01:05:38;;;;;;;14.50;8.80;;;;;;;;;;104498;1276;61678;-30
2023/10/22 01:08:05;;;;;;;18.00;8.70;;;;;;;;;;104454;1281;61704;-30
2023/10/22 01:10:31;;;;;;;14.20;7.20;;;;;;;;;;104323;1281;61727;-30
2023/10/22 01:12:56;;;;;;;12.40;6.40;;;;;;;;;;104451;1281;61811;-30
2023/10/22 01:15:22;;;;;;;11.80;5.00;;;;;;;;;;104402;1279;61695;-30
2023/10/22 01:17:47;;;;;;;10.60;5.10;;;;;;;;;;104422;1276;61741;-29
2023/10/22 01:20:13;;;;;;;10.20;4.20;;;;;;;;;;104412;1277;61701;-29
2023/10/22 01:22:39;;;;;;;9.30;4.30;;;;;;;;;;104384;1276;61685;-29
2023/10/22 01:25:05;;;;;;;14.40;3.60;;;;;;;;;;104532;1277;61586;-29
2023/10/22 01:27:32;;;;;;;7.20;2.80;;;;;;;;;;104461;1281;61590;-28
2023/10/22 01:29:57;;;;;;;6.90;2.90;;;;;;;;;;104401;1277;62019;-32
2023/10/22 01:32:22;;;;;;;7.40;3.50;;;;;;;;;;104368;1278;61698;-33
2023/10/22 01:34:47;;;;;;;8.30;3.70;;;;;;;;;;104356;1277;61717;-29
2023/10/22 01:37:13;;;;;;;8.70;3.00;;;;;;;;;;104412;1277;61701;-28
2023/10/22 01:39:38;;;;;;;3.90;2.50;;;;;;;;;;104422;1277;62233;-32
2023/10/22 01:42:04;;;;;;;9.20;3.00;;;;;;;;;;104477;1278;61776;-29
2023/10/22 01:44:29;;;;;;;10.80;3.00;;;;;;;;;;104490;1276;61717;-32
2023/10/22 01:46:54;;;;;;;8.90;2.90;;;;;;;;;;104363;1279;61768;-32
2023/10/22 01:49:20;;;;;;;10.10;2.70;;;;;;;;;;104429;1281;61718;-30
2023/10/22 01:51:45;;;;;;;9.00;2.80;;;;;;;;;;104423;1277;61707;-34
2023/10/22 02:32:50;;;;;;;11.30;4.00;;;;;;;-102.40;-0.80;13532.50;101109;1280;1599792;-31
2023/10/22 02:35:55;;;;;;;11.30;4.00;;;;;;;-128.00;-1.00;-1.00;63697;1285;81163839;-35
2023/10/22 02:41:51;;;;;;;11.30;4.00;;;;;;;-128.00;-1.00;-1.00;2;354791554;354791554;-32
2023/10/22 02:45:05;;;;;;;11.30;4.00;;;;;;;-128.00;-1.00;-1.00;4372;1302;88852539;-30
2023/10/22 02:48:12;;;;;;;11.30;4.00;;;;;;;-128.00;-1.00;-1.00;1788;1285;89933741;-33
2023/10/22 02:59:30;;;;;;;11.30;4.00;;;;;;;-128.00;-1.00;-1.00;2186;1303;576041735;-31
2023/10/22 03:05:32;;;;;;;11.30;4.00;;;;;;;-128.00;-1.00;-1.00;5222;1304;311125024;-31
2023/10/22 03:10:30;;;;;;;11.30;4.00;;;;;;;-128.00;-1.00;-1.00;11419;1303;177243130;-33
2023/10/22 03:18:07;;;;;;;11.30;4.00;;;;;;;-128.00;-1.00;-1.00;2212;1295;441151405;-33
2023/10/22 03:24:18;;;;;;;11.30;4.00;;;;;;;-128.00;-1.00;-1.00;2;363122893;363122893;-33
2023/10/22 03:35:37;;;;;;;11.30;4.00;;;;;;;-128.00;-1.00;-1.00;4;7504810;579198070;-33
2023/10/22 03:44:48;;;;;;;11.30;4.00;;;;;;;-128.00;-1.00;-1.00;2;543181301;543181301;-31
2023/10/22 03:54:44;;;;;;;11.30;4.00;;;;;;;-128.00;-1.00;-1.00;2;588198305;588198305;-33
2023/10/22 04:02:16;;;;;;;11.30;4.00;;;;;;;-128.00;-1.00;-1.00;2;444152660;444152660;-32
2023/10/22 04:08:27;;;;;;;11.30;4.00;;;;;;;-128.00;-1.00;-1.00;2;363128124;363128124;-31
2023/10/22 04:18:30;;;;;;;11.30;4.00;;;;;;;-128.00;-1.00;-1.00;4;7505234;510089933;-31
2023/10/22 04:20:55;;;;;;;26.10;11.20;;;;;;;-128.00;-1.00;-1.00;97614;1280;3988636;-32
2023/10/22 04:31:11;;;;;;;26.10;11.20;;;;;;;-128.00;-1.00;-1.00;11369;1285;585202044;-30
2023/10/22 04:37:09;;;;;;;26.10;11.20;;;;;;;-128.00;-1.00;-1.00;2;356029670;356029670;-33
2023/10/22 04:41:42;;;;;;;26.10;11.20;;;;;;;-128.00;-1.00;-1.00;5802;1286;253124323;-30
2023/10/22 04:46:37;;;;;;;26.10;11.20;;;;;;;-128.00;-1.00;-1.00;50053;1301;160726434;-31
2023/10/22 04:51:06;;;;;;;26.10;11.20;;;;;;;-128.00;-1.00;-1.00;27328;1285;219932878;-31
2023/10/22 05:02:50;;;;;;;26.10;11.20;;;;;;;-128.00;-1.00;-1.00;12242;1285;579194889;-31
2023/10/22 05:12:01;;;;;;;26.10;11.20;;;;;;;-128.00;-1.00;-1.00;2;543188242;543188242;-32
2023/10/22 05:21:57;;;;;;;26.10;11.20;;;;;;;-128.00;-1.00;-1.00;2;588200978;588200978;-30
2023/10/22 05:29:29;;;;;;;26.10;11.20;;;;;;;-128.00;-1.00;-1.00;2;444150234;444150234;-31
2023/10/22 05:35:40;;;;;;;26.10;11.20;;;;;;;-128.00;-1.00;-1.00;2;363117404;363117404;-32
2023/10/22 05:42:47;;;;;;;26.10;11.20;;;;;;;-128.00;-1.00;-1.00;4;7504828;334320181;-31
2023/10/22 05:48:44;;;;;;;26.10;11.20;;;;;;;-128.00;-1.00;-1.00;27190;1285;313688937;-30
2023/10/22 05:57:26;;;;;;;26.10;11.20;;;;;;;-128.00;-1.00;-1.00;44238;1285;441145837;-32
2023/10/22 06:03:37;;;;;;;26.10;11.20;;;;;;;-128.00;-1.00;-1.00;2;363119805;363119805;-32
2023/10/22 06:14:35;;;;;;;26.10;11.20;;;;;;;-128.00;-1.00;-1.00;4;7504757;564079201;-33
2023/10/22 06:25:48;;;;;;;26.10;11.20;;;;;;;-128.00;-1.00;-1.00;84808;1283;540187892;-32
2023/10/22 06:32:49;;;;;;;26.10;11.20;;;;;;;-128.00;-1.00;-1.00;2;417257110;417257110;-32
2023/10/22 06:35:14;;;;;;;157.70;53.70;;;;;;;-128.00;-1.00;-1.00;100487;1284;1002565;-33
2023/10/22 06:37:39;;;;;;;653.90;261.00;;;;;;;-128.00;-1.00;-1.00;100513;1280;1003041;-30
2023/10/22 06:40:07;;;;;;;205.50;71.20;;;;;;;-128.00;-1.00;-1.00;100463;1280;1003057;-32
2023/10/22 06:42:33;;;;;;;114.60;42.20;;;;;;;-128.00;-1.00;-1.00;100539;1280;1004982;-29
2023/10/22 06:44:59;;;;;;;46.40;22.40;;;;;;;-128.00;-1.00;-1.00;100520;1280;1005119;-30
2023/10/22 06:47:25;;;;;;;42.10;21.30;;;;;;;-128.00;-1.00;-1.00;100505;1282;1005133;-33
2023/10/22 06:49:51;;;;;;;36.50;19.40;;;;;;;-128.00;-1.00;-1.00;100594;1280;1003420;-30
2023/10/22 06:52:17;;;;;;;38.00;19.40;;;;;;;-128.00;-1.00;-1.00;100391;1280;1060025;-29
2023/10/22 06:54:42;;;;;;;73.20;45.30;;;;;;;-128.00;-1.00;-1.00;100628;1279;1003377;-32
2023/10/22 06:57:07;;;;;;;43.00;30.10;;;;;;;-128.00;-1.00;-1.00;100491;1280;1003075;-31
2023/10/22 06:59:34;;;;;;;38.00;24.50;;;;;;;-128.00;-1.00;-1.00;100490;1279;1003045;-32
2023/10/22 07:01:59;;;;;;;62.40;43.10;;;;;;;-128.00;-1.00;-1.00;100491;1280;1061305;-30
2023/10/22 07:04:25;;;;;;;82.80;52.50;;;;;;;-128.00;-1.00;-1.00;100492;1279;1003417;-33
2023/10/22 07:06:50;;;;;;;45.70;23.00;;;;;;;-128.00;-1.00;-1.00;100490;1279;1003898;-33
2023/10/22 07:09:15;;;;;;;34.20;16.70;;;;;;;-128.00;-1.00;-1.00;100514;1279;1004321;-36
2023/10/22 07:11:41;;;;;;;39.60;20.20;;;;;;;-128.00;-1.00;-1.00;100514;1280;1003629;-29
2023/10/22 07:14:06;;;;;;;45.60;33.00;;;;;;;-128.00;-1.00;-1.00;100499;1280;1003197;-29
2023/10/22 07:16:32;;;;;;;58.20;40.10;;;;;;;-128.00;-1.00;-1.00;100542;1279;1004830;-32
2023/10/22 07:18:57;;;;;;;31.10;19.80;;;;;;;-128.00;-1.00;-1.00;100513;1279;1004924;-29
2023/10/22 07:21:23;;;;;;;54.30;37.60;;;;;;;-128.00;-1.00;-1.00;100497;1280;1003538;-30
2023/10/22 07:23:48;;;;;;;25.80;16.50;;;;;;;-128.00;-1.00;-1.00;100421;1279;1004512;-28
2023/10/22 07:26:14;;;;;;;42.20;27.60;;;;;;;-128.00;-1.00;-1.00;100759;1279;1004274;-29
2023/10/22 07:28:41;;;;;;;45.60;23.90;;;;;;;-128.00;-1.00;-1.00;100472;1280;1002760;-29
2023/10/22 07:31:07;;;;;;;51.50;24.10;;;;;;;-128.00;-1.00;-1.00;100445;1279;1005235;-32
2023/10/22 07:33:33;;;;;;;57.20;26.70;;;;;;;-128.00;-1.00;-1.00;100474;1280;1002859;-30
2023/10/22 07:36:04;;;;;;;87.70;38.20;;;;;;;-128.00;-1.00;-1.00;100552;1279;1004696;-32
2023/10/22 07:38:31;;;;;;;90.50;44.70;;;;;;;-128.00;-1.00;-1.00;100444;1285;1038910;-28
2023/10/22 07:40:56;;;;;;;74.20;37.90;;;;;;;-128.00;-1.00;-1.00;100534;1279;1003540;-28
2023/10/22 07:43:23;;;;;;;58.80;30.20;;;;;;;-128.00;-1.00;-1.00;100509;1279;1003291;-28
2023/10/22 07:45:49;;;;;;;82.50;48.70;;;;;;;-128.00;-1.00;-1.00;100471;1279;1060124;-31
2023/10/22 07:48:14;;;;;;;120.30;86.10;;;;;;;-128.00;-1.00;-1.00;100427;1279;1003353;-28
2023/10/22 07:50:40;;;;;;;61.30;33.80;;;;;;;-128.00;-1.00;-1.00;100519;1280;1004340;-31
2023/10/22 07:53:05;;;;;;;60.40;32.40;;;;;;;-128.00;-1.00;-1.00;100546;1279;1004282;-31
2023/10/22 07:55:31;;;;;;;56.80;31.70;;;;;;;-128.00;-1.00;-1.00;100480;1280;1004280;-31
2023/10/22 07:57:56;;;;;;;62.50;36.50;;;;;;;-128.00;-1.00;-1.00;100483;1280;1002975;-29
2023/10/22 08:00:21;;;;;;;62.20;40.80;;;;;;;-128.00;-1.00;-1.00;100512;1280;1004800;-33
2023/10/22 08:02:47;;;;;;;47.50;31.70;;;;;;;-128.00;-1.00;-1.00;100638;1279;1005589;-28
2023/10/22 08:05:12;;;;;;;51.10;27.20;;;;;;;-128.00;-1.00;-1.00;100470;1280;1003010;-29
2023/10/22 08:07:37;;;;;;;50.40;30.10;;;;;;;-128.00;-1.00;-1.00;100576;1280;1003940;-28
2023/10/22 08:10:03;;;;;;;48.00;25.30;;;;;;;-128.00;-1.00;-1.00;100504;1279;1003169;-32
2023/10/22 08:12:28;;;;;;;;;;;;;;;-128.00;-1.00;-1.00;100586;1280;1004045;-29
2023/10/22 08:14:54;;;;;;;35.80;20.90;;;;;;;-128.00;-1.00;-1.00;100460;1280;1003596;-29
2023/10/22 08:17:19;;;;;;;66.70;47.40;;;;;;;-128.00;-1.00;-1.00;100361;1280;1003904;-30
2023/10/22 08:19:44;;;;;;;27.20;17.00;;;;;;;-128.00;-1.00;-1.00;100488;1280;1003857;-30
2023/10/22 08:22:10;;;;;;;42.30;32.70;;;;;;;-128.00;-1.00;-1.00;100489;1280;1003977;-28
2023/10/22 08:24:35;;;;;;;30.00;17.80;;;;;;;-128.00;-1.00;-1.00;100745;1279;1003208;-32
2023/10/22 08:27:01;;;;;;;28.00;15.80;;;;;;;-128.00;-1.00;-1.00;100479;1280;1004183;-29
2023/10/22 08:29:27;;;;;;;55.30;37.40;;;;;;;-128.00;-1.00;-1.00;100552;1280;1003529;-31
2023/10/22 08:31:52;;;;;;;57.70;42.70;;;;;;;-128.00;-1.00;-1.00;100474;1280;1002786;-31
2023/10/22 08:34:19;;;;;;;60.00;38.80;;;;;;;-128.00;-1.00;-1.00;100406;1279;1002494;-29
2023/10/22 08:36:44;;;;;;;60.20;35.20;;;;;;;-128.00;-1.00;-1.00;100452;1280;1003341;-29
2023/10/22 08:39:10;;;;;;;64.70;40.00;;;;;;;-128.00;-1.00;-1.00;100406;1279;1002937;-29
2023/10/22 08:41:43;;;;;;;100.80;60.20;;;;;;;-128.00;-1.00;-1.00;100507;1279;1046947;-31
2023/10/22 08:44:08;;;;;;;128.10;81.60;;;;;;;-128.00;-1.00;-1.00;100495;1280;1060079;-28
2023/10/22 08:46:34;;;;;;;56.70;40.00;;;;;;;-128.00;-1.00;-1.00;100448;1280;1002959;-32
2023/10/22 08:49:01;;;;;;;63.40;45.10;;;;;;;-128.00;-1.00;-1.00;100493;1280;1013693;-33
2023/10/22 08:51:27;;;;;;;18.90;11.20;;;;;;;-128.00;-1.00;-1.00;100513;1284;1003429;-29
2023/10/22 08:53:52;;;;;;;94.90;68.30;;;;;;;-128.00;-1.00;-1.00;100406;1280;1003616;-35
2023/10/22 08:56:18;;;;;;;66.90;47.00;;;;;;;-128.00;-1.00;-1.00;100453;1279;1003008;-32
2023/10/22 08:58:43;;;;;;;107.10;77.10;;;;;;;-128.00;-1.00;-1.00;100462;1279;1003423;-34
2023/10/22 09:01:09;;;;;;;72.50;50.60;;;;;;;-128.00;-1.00;-1.00;100456;1285;1002978;-35
2023/10/22 09:03:35;;;;;;;82.00;61.20;;;;;;;-128.00;-1.00;-1.00;100558;1279;1003279;-29
2023/10/22 09:06:01;;;;;;;10.90;7.90;;;;;;;-128.00;-1.00;-1.00;100532;1279;1062150;-30
2023/10/22 09:08:45;;;;;;;22.40;17.00;;;;;;;-128.00;-1.00;-1.00;100536;1279;1002447;-32
2023/10/22 09:11:14;;;;;;;17.20;12.80;;;;;;;-128.00;-1.00;-1.00;100519;1280;1059141;-30
2023/10/22 09:13:40;;;;;;;93.10;80.80;;;;;;;-128.00;-1.00;-1.00;100481;1280;1013035;-30
2023/10/22 09:16:07;;;;;;;44.00;37.90;;;;;;;-128.00;-1.00;-1.00;100452;1280;1004319;-30
2023/10/22 09:18:32;;;;;;;29.60;22.40;;;;;;;-128.00;-1.00;-1.00;100494;1279;1003516;-31
2023/10/22 09:21:10;;;;;;;15.80;10.40;;;;;;;-128.00;-1.00;-1.00;100526;1280;1004210;-31
2023/10/22 09:23:35;;;;;;;10.40;5.70;;;;;;;-128.00;-1.00;-1.00;100466;1280;1060836;-33
2023/10/22 09:26:00;;;;;;;9.60;6.60;;;;;;;-128.00;-1.00;-1.00;100486;1280;1003701;-33
2023/10/22 09:28:27;;;;;;;12.70;6.60;;;;;;;-128.00;-1.00;-1.00;100542;1279;1003453;-30
2023/10/22 09:31:05;;;;;;;12.00;7.20;;;;;;;-128.00;-1.00;-1.00;100530;1280;1003176;-34
2023/10/22 09:33:36;;;;;;;10.40;8.10;;;;;;;-128.00;-1.00;-1.00;100497;1280;1055675;-33
2023/10/22 09:36:04;;;;;;;32.30;24.30;;;;;;;-128.00;-1.00;-1.00;100422;1285;1058762;-35
2023/10/22 09:38:46;;;;;;;20.20;13.50;;;;;;;-128.00;-1.00;-1.00;100488;1280;1003786;-36
2023/10/22 09:41:27;;;;;;;59.50;37.40;;;;;;;-128.00;-1.00;-1.00;100670;1285;1038407;-34
2023/10/22 09:43:54;;;;;;;125.60;91.00;;;;;;;-128.00;-1.00;-1.00;100479;1279;1045621;-30
2023/10/22 09:46:19;;;;;;;66.10;45.20;;;;;;;-128.00;-1.00;-1.00;100560;1280;1003521;-35
2023/10/22 09:48:47;;;;;;;47.70;34.10;;;;;;;-128.00;-1.00;-1.00;100569;1280;1003210;-30
2023/10/22 09:51:13;;;;;;;34.30;20.70;;;;;;;-128.00;-1.00;-1.00;100444;1279;1013461;-34
2023/10/22 09:53:40;;;;;;;26.20;12.60;;;;;;;-128.00;-1.00;-1.00;100519;1280;1003661;-35
2023/10/22 09:56:06;;;;;;;23.00;10.10;;;;;;;-128.00;-1.00;-1.00;100463;1279;1004936;-35
2023/10/22 09:58:31;;;;;;;19.50;9.40;;;;;;;-128.00;-1.00;-1.00;100495;1279;1002603;-31
2023/10/22 10:00:58;;;;;;;19.00;9.00;;;;;;;-128.00;-1.00;-1.00;100432;1280;1002850;-31
2023/10/22 10:03:23;;;;;;;13.10;7.10;;;;;;;-128.00;-1.00;-1.00;100497;1279;1013407;-35
2023/10/22 10:05:49;;;;;;;12.40;7.20;;;;;;;-128.00;-1.00;-1.00;100457;1283;1004969;-34
2023/10/22 10:08:15;;;;;;;9.40;5.90;;;;;;;-128.00;-1.00;-1.00;100523;1280;1002991;-30
2023/10/22 10:10:41;;;;;;;8.90;5.40;;;;;;;-128.00;-1.00;-1.00;100674;1280;1003037;-30
2023/10/22 10:13:06;;;;;;;6.20;3.70;;;;;;;-128.00;-1.00;-1.00;100552;1280;1004827;-30
2023/10/22 10:15:33;;;;;;;6.70;4.00;;;;;;;-128.00;-1.00;-1.00;100573;1284;1003460;-33
2023/10/22 10:18:00;;;;;;;7.10;4.10;;;;;;;-128.00;-1.00;-1.00;100498;1279;1002883;-31
2023/10/22 10:20:27;;;;;;;5.50;3.90;;;;;;;-128.00;-1.00;-1.00;100424;1280;1004062;-35
2023/10/22 10:23:08;;;;;;;4.20;2.70;;;;;;;-128.00;-1.00;-1.00;100560;1279;1004118;-31
2023/10/22 10:25:35;;;;;;;4.50;1.90;;;;;;;-128.00;-1.00;-1.00;100460;1280;1058553;-36
2023/10/22 10:28:08;;;;;;;3.80;2.10;;;;;;;-128.00;-1.00;-1.00;100530;1279;1003667;-35
2023/10/22 10:30:34;;;;;;;3.60;1.60;;;;;;;-128.00;-1.00;-1.00;100519;1285;1039342;-30
2023/10/22 10:32:59;;;;;;;2.70;1.60;;;;;;;-128.00;-1.00;-1.00;100502;1279;1003373;-34
2023/10/22 10:35:27;;;;;;;4.10;2.20;;;;;;;-128.00;-1.00;-1.00;100543;1279;1003108;-32
2023/10/22 10:38:16;;;;;;;3.60;1.70;;;;;;;-128.00;-1.00;-1.00;100681;1280;1004998;-31
2023/10/22 10:40:46;;;;;;;6.20;2.70;;;;;;;-128.00;-1.00;-1.00;100508;1279;1013501;-35
2023/10/22 10:43:12;;;;;;;3.40;1.30;;;;;;;-128.00;-1.00;-1.00;100435;1285;1039675;-35
2023/10/22 10:45:41;;;;;;;;;;;;;;;-128.00;-1.00;-1.00;100546;1279;1004995;-30
2023/10/22 10:48:32;;;;;;;3.30;1.90;;;;;;;-128.00;-1.00;-1.00;100532;1279;1005070;-35
2023/10/22 10:51:18;;;;;;;4.20;2.20;;;;;;;-128.00;-1.00;-1.00;100653;1279;1059007;-30
2023/10/22 10:54:17;;;;;;;3.10;1.60;;;;;;;-128.00;-1.00;-1.00;100445;1279;1060385;-34
2023/10/22 10:56:47;;;;;;;2.70;1.70;;;;;;;-128.00;-1.00;-1.00;100492;1280;1013187;-30
2023/10/22 10:59:25;;;;;;;4.30;2.70;;;;;;;-128.00;-1.00;-1.00;100646;1280;1039466;-35
2023/10/22 11:02:01;;;;;;;3.50;2.40;;;;;;;-128.00;-1.00;-1.00;100493;1279;1046964;-35
2023/10/22 11:04:28;;;;;;;5.10;2.00;;;;;;;-128.00;-1.00;-1.00;100393;1285;1061418;-34
2023/10/22 11:06:54;;;;;;;4.80;2.10;;;;;;;-128.00;-1.00;-1.00;100587;1280;1003503;-35
2023/10/22 11:09:20;;;;;;;5.30;2.90;;;;;;;-128.00;-1.00;-1.00;100399;1280;1003459;-31
2023/10/22 11:11:52;;;;;;;3.50;2.10;;;;;;;-128.00;-1.00;-1.00;100493;1280;1005235;-34
2023/10/22 11:14:18;;;;;;;4.10;2.20;;;;;;;-128.00;-1.00;-1.00;100553;1280;1047309;-34
2023/10/22 11:16:50;;;;;;;2.50;2.00;;;;;;;-128.00;-1.00;-1.00;100546;1279;1003019;-31
2023/10/22 11:19:23;;;;;;;4.00;2.00;;;;;;;-128.00;-1.00;-1.00;100466;1280;1060498;-35
2023/10/22 11:21:49;;;;;;;2.20;1.10;;;;;;;-128.00;-1.00;-1.00;100452;1279;1013209;-32
2023/10/22 11:24:15;;;;;;;2.30;1.00;;;;;;;-128.00;-1.00;-1.00;100553;1280;1003401;-35
2023/10/22 11:26:40;;;;;;;2.50;1.70;;;;;;;-128.00;-1.00;-1.00;100521;1279;1003093;-35
2023/10/22 11:29:05;;;;;;;1.80;1.10;;;;;;;-128.00;-1.00;-1.00;100452;1280;1002985;-35
2023/10/22 11:31:31;;;;;;;2.30;1.50;;;;;;;-128.00;-1.00;-1.00;100435;1280;1003297;-31
2023/10/22 11:34:13;;;;;;;2.90;1.40;;;;;;;-128.00;-1.00;-1.00;100574;1280;1003733;-35
2023/10/22 11:36:38;;;;;;;3.60;1.00;;;;;;;-128.00;-1.00;-1.00;100592;1279;1047949;-31
2023/10/22 11:39:18;;;;;;;2.50;1.30;;;;;;;-128.00;-1.00;-1.00;100628;1280;1004359;-35
2023/10/22 11:41:43;;;;;;;1.10;0.80;;;;;;;-128.00;-1.00;-1.00;100453;1285;1059474;-32
2023/10/22 11:44:09;;;;;;;1.20;0.80;;;;;;;-128.00;-1.00;-1.00;100488;1280;1005143;-31
2023/10/22 11:46:41;;;;;;;1.70;0.90;;;;;;;-128.00;-1.00;-1.00;100547;1279;1003860;-36
2023/10/22 11:49:06;;;;;;;2.50;1.30;;;;;;;-128.00;-1.00;-1.00;100640;1280;1060216;-31
2023/10/22 11:51:44;;;;;;;2.10;1.20;;;;;;;-128.00;-1.00;-1.00;100622;1279;1003460;-30
2023/10/22 11:54:09;;;;;;;1.40;0.60;;;;;;;-128.00;-1.00;-1.00;100459;1279;1013825;-34
2023/10/22 11:56:34;;;;;;;0.90;0.60;;;;;;;-128.00;-1.00;-1.00;100757;1284;1004606;-35
2023/10/22 11:59:00;;;;;;;1.30;0.50;;;;;;;-128.00;-1.00;-1.00;100583;1280;1002957;-34
2023/10/22 12:01:25;;;;;;;0.90;0.50;;;;;;;-128.00;-1.00;-1.00;100518;1280;1003702;-35
2023/10/22 12:03:51;;;;;;;;;;;;;;;-128.00;-1.00;-1.00;100495;1280;1012389;-35
2023/10/22 12:06:16;;;;;;;1.60;0.90;;;;;;;-128.00;-1.00;-1.00;100596;1279;1003316;-34
2023/10/22 12:08:41;;;;;;;2.40;0.50;;;;;;;-128.00;-1.00;-1.00;100643;1280;1002933;-34
2023/10/22 12:11:07;;;;;;;1.40;0.80;;;;;;;-128.00;-1.00;-1.00;100490;1279;1003132;-33
2023/10/22 12:13:32;;;;;;;0.90;0.60;;;;;;;-128.00;-1.00;-1.00;100476;1285;1003312;-35
2023/10/22 12:15:58;;;;;;;1.60;0.60;;;;;;;-128.00;-1.00;-1.00;100506;1280;1004771;-35
2023/10/22 12:18:23;;;;;;;1.20;0.90;;;;;;;-128.00;-1.00;-1.00;100626;1280;1005231;-35
2023/10/22 12:20:49;;;;;;;0.70;0.50;;;;;;;-128.00;-1.00;-1.00;100489;1280;1004496;-31
2023/10/22 12:23:14;;;;;;;2.50;1.60;;;;;;;-128.00;-1.00;-1.00;100493;1279;1016125;-30
2023/10/22 12:25:39;;;;;;;1.20;0.70;;;;;;;-128.00;-1.00;-1.00;100353;1285;1004635;-34
2023/10/22 12:28:05;;;;;;;1.90;1.30;;;;;;;-128.00;-1.00;-1.00;100485;1280;1004757;-31
2023/10/22 12:30:30;;;;;;;4.20;1.50;;;;;;;-128.00;-1.00;-1.00;100443;1280;1003054;-34
2023/10/22 12:32:56;;;;;;;0.80;0.40;;;;;;;-128.00;-1.00;-1.00;100462;1279;1003201;-31
2023/10/22 12:35:21;;;;;;;1.10;0.60;;;;;;;-128.00;-1.00;-1.00;100379;1279;1003362;-31
2023/10/22 12:37:47;;;;;;;1.20;0.40;;;;;;;-128.00;-1.00;-1.00;100516;1279;1003595;-35
2023/10/22 12:40:12;;;;;;;;;;;;;;;-128.00;-1.00;-1.00;100452;1280;1056705;-35
2023/10/22 12:42:42;;;;;;;3.10;1.00;;;;;;;-128.00;-1.00;-1.00;100472;1280;1002785;-30
2023/10/22 12:45:11;;;;;;;4.20;1.20;;;;;;;-128.00;-1.00;-1.00;100336;1285;1040045;-34
2023/10/22 12:47:36;;;;;;;1.70;0.70;;;;;;;-128.00;-1.00;-1.00;100582;1280;1047486;-34
2023/10/22 12:50:04;;;;;;;0.60;0.40;;;;;;;-128.00;-1.00;-1.00;100530;1280;1004034;-30
2023/10/22 12:52:29;;;;;;;2.70;1.20;;;;;;;-128.00;-1.00;-1.00;100457;1284;1058961;-34
2023/10/22 12:54:55;;;;;;;1.90;1.30;;;;;;;-128.00;-1.00;-1.00;100338;1279;1004562;-35
2023/10/22 12:57:21;;;;;;;3.70;1.30;;;;;;;-128.00;-1.00;-1.00;100630;1279;1045874;-30
2023/10/22 12:59:46;;;;;;;4.40;0.80;;;;;;;-128.00;-1.00;-1.00;100487;1280;1004905;-36
2023/10/22 13:02:12;;;;;;;1.60;0.70;;;;;;;-128.00;-1.00;-1.00;100453;1280;1004659;-31
2023/10/22 13:04:37;;;;;;;3.30;0.80;;;;;;;-128.00;-1.00;-1.00;100550;1280;1003762;-35
2023/10/22 13:07:03;;;;;;;2.50;1.00;;;;;;;-128.00;-1.00;-1.00;100558;1279;1002974;-31
2023/10/22 13:09:29;;;;;;;1.30;0.60;;;;;;;-128.00;-1.00;-1.00;100559;1280;1059586;-34
2023/10/22 13:11:54;;;;;;;7.60;1.30;;;;;;;-128.00;-1.00;-1.00;100492;1280;1003823;-31
2023/10/22 13:14:20;;;;;;;1.90;0.40;;;;;;;-128.00;-1.00;-1.00;100456;1285;1003422;-30
2023/10/22 13:16:45;;;;;;;;;;;;;;;-128.00;-1.00;-1.00;100463;1281;1039018;-31
2023/10/22 13:19:11;;;;;;;1.70;0.50;;;;;;;-128.00;-1.00;-1.00;100455;1280;1003063;-34
2023/10/22 13:21:37;;;;;;;2.90;0.70;;;;;;;-128.00;-1.00;-1.00;100341;1280;1003185;-31
2023/10/22 13:24:03;;;;;;;1.10;0.70;;;;;;;-128.00;-1.00;-1.00;100585;1281;1004385;-30
2023/10/22 13:26:29;;;;;;;;;;;;;;;-128.00;-1.00;-1.00;100547;1280;1003039;-31
2023/10/22 13:28:54;;;;;;;6.20;1.50;;;;;;;-128.00;-1.00;-1.00;100528;1279;1002917;-34
2023/10/22 13:31:19;;;;;;;3.70;0.60;;;;;;;-128.00;-1.00;-1.00;100575;1280;1002893;-31
2023/10/22 13:33:45;;;;;;;6.00;1.70;;;;;;;-128.00;-1.00;-1.00;100526;1285;1002751;-32
2023/10/22 13:36:10;;;;;;;1.50;0.50;;;;;;;-128.00;-1.00;-1.00;100537;1279;1005038;-34
2023/10/22 13:38:36;;;;;;;1.60;0.30;;;;;;;-128.00;-1.00;-1.00;100464;1285;1003407;-30
2023/10/22 13:41:02;;;;;;;1.10;0.50;;;;;;;-128.00;-1.00;-1.00;100544;1280;1003343;-31
2023/10/22 13:43:27;;;;;;;1.60;0.60;;;;;;;-128.00;-1.00;-1.00;100488;1280;1003238;-31
2023/10/22 13:45:53;;;;;;;1.70;1.10;;;;;;;-128.00;-1.00;-1.00;100501;1280;1005096;-30
2023/10/22 13:48:18;;;;;;;2.20;0.90;;;;;;;-128.00;-1.00;-1.00;100458;1280;1003018;-30
2023/10/22 14:45:30;;;;;;;2.70;1.40;;;;;;;-81.76;32.67;32850.23;2;584389448;584389448;-34
2023/10/22 14:54:41;;;;;;;2.70;1.40;;;;;;;-128.00;-1.00;-1.00;2;543183211;543183211;-35
2023/10/22 15:04:28;;;;;;;2.70;1.40;;;;;;;-128.00;-1.00;-1.00;2;579196527;579196527;-35
2023/10/22 15:12:00;;;;;;;2.70;1.40;;;;;;;-128.00;-1.00;-1.00;2;444147519;444147519;-33
2023/10/22 15:18:13;;;;;;;2.70;1.40;;;;;;;-128.00;-1.00;-1.00;2;363127667;363127667;-36
2023/10/22 15:29:32;;;;;;;2.70;1.40;;;;;;;-128.00;-1.00;-1.00;4;7507091;579191467;-35
2023/10/22 15:38:43;;;;;;;2.70;1.40;;;;;;;-128.00;-1.00;-1.00;2;543181123;543181123;-36
2023/10/22 15:48:30;;;;;;;2.70;1.40;;;;;;;-128.00;-1.00;-1.00;2;579200486;579200486;-37
2023/10/22 15:56:06;;;;;;;2.70;1.40;;;;;;;-128.00;-1.00;-1.00;2;444146965;444146965;-35
2023/10/22 16:02:17;;;;;;;2.70;1.40;;;;;;;-128.00;-1.00;-1.00;2;363120188;363120188;-34
2023/10/22 16:13:35;;;;;;;2.70;1.40;;;;;;;-128.00;-1.00;-1.00;4;7504782;579196813;-32
2023/10/22 16:22:46;;;;;;;2.70;1.40;;;;;;;-128.00;-1.00;-1.00;2;543185030;543185030;-32
2023/10/22 16:32:42;;;;;;;2.70;1.40;;;;;;;-128.00;-1.00;-1.00;2;588197245;588197245;-37
2023/10/22 16:40:14;;;;;;;2.70;1.40;;;;;;;-128.00;-1.00;-1.00;2;444147909;444147909;-36
2023/10/22 16:46:25;;;;;;;2.70;1.40;;;;;;;-128.00;-1.00;-1.00;2;363120468;363120468;-33
2023/10/22 16:57:43;;;;;;;2.70;1.40;;;;;;;-128.00;-1.00;-1.00;4;7504524;579197868;-33
2023/10/22 17:06:54;;;;;;;2.70;1.40;;;;;;;-128.00;-1.00;-1.00;2;543185670;543185670;-31
2023/10/22 17:16:50;;;;;;;2.70;1.40;;;;;;;-128.00;-1.00;-1.00;2;588199996;588199996;-31
2023/10/22 17:24:22;;;;;;;2.70;1.40;;;;;;;-128.00;-1.00;-1.00;2;444153721;444153721;-31
2023/10/22 17:30:36;;;;;;;2.70;1.40;;;;;;;-128.00;-1.00;-1.00;2;363126256;363126256;-32
2023/10/22 17:41:54;;;;;;;2.70;1.40;;;;;;;-128.00;-1.00;-1.00;4;7506283;579190663;-33
2023/10/22 17:51:05;;;;;;;2.70;1.40;;;;;;;-128.00;-1.00;-1.00;2;543182515;543182515;-32
2023/10/22 18:01:02;;;;;;;2.70;1.40;;;;;;;-128.00;-1.00;-1.00;2;588196566;588196566;-32
2023/10/22 18:08:34;;;;;;;2.70;1.40;;;;;;;-128.00;-1.00;-1.00;2;444144730;444144730;-30
2023/10/22 18:14:45;;;;;;;2.70;1.40;;;;;;;-128.00;-1.00;-1.00;2;363120127;363120127;-33